createdAt,value
2017-07-21T00:01:51.552Z,7.60
2017-07-21T00:04:19.682Z,5.03
2017-07-21T00:06:47.793Z,6.15
2017-07-21T00:09:16.025Z,5.37
2017-07-21T00:11:44.144Z,7.82
2017-07-21T00:14:12.373Z,5.70
2017-07-21T00:16:40.494Z,5.43
2017-07-21T00:19:08.614Z,6.50
2017-07-21T00:21:36.773Z,4.32
2017-07-21T00:24:04.889Z,6.00
2017-07-21T00:26:33.003Z,4.60
2017-07-21T00:29:01.270Z,5.32
2017-07-21T00:31:29.388Z,6.82
2017-07-21T00:33:57.541Z,5.40
2017-07-21T00:36:25.721Z,6.45
2017-07-21T00:38:53.845Z,5.50
2017-07-21T00:41:21.986Z,5.53
2017-07-21T00:43:50.133Z,8.57
2017-07-21T00:46:19.586Z,6.53
2017-07-21T00:48:47.689Z,5.68
2017-07-21T00:51:15.828Z,5.57
2017-07-21T00:53:44.021Z,5.55
2017-07-21T00:56:12.217Z,5.55
2017-07-21T00:58:40.406Z,6.35
2017-07-21T01:01:08.560Z,6.12
2017-07-21T01:03:36.683Z,7.15
2017-07-21T01:06:04.937Z,6.45
2017-07-21T01:08:33.117Z,5.65
2017-07-21T01:11:01.313Z,6.82
2017-07-21T01:13:29.428Z,5.28
2017-07-21T01:15:57.550Z,4.95
2017-07-21T01:18:25.823Z,5.50
2017-07-21T01:20:53.925Z,6.25
2017-07-21T01:23:22.964Z,6.95
2017-07-21T01:25:51.100Z,6.10
2017-07-21T01:28:19.229Z,9.07
2017-07-21T01:30:47.391Z,6.37
2017-07-21T01:33:15.533Z,6.50
2017-07-21T01:35:43.658Z,6.35
2017-07-21T01:38:11.896Z,12.35
2017-07-21T01:40:40.058Z,8.43
2017-07-21T01:43:08.160Z,7.65
2017-07-21T01:45:36.399Z,11.30
2017-07-21T01:48:04.538Z,8.02
2017-07-21T01:50:32.694Z,6.62
2017-07-21T01:53:00.826Z,6.37
2017-07-21T01:55:28.982Z,5.95
2017-07-21T01:57:57.174Z,6.22
2017-07-21T02:00:25.409Z,8.45
2017-07-21T02:02:53.877Z,6.32
2017-07-21T02:05:22.023Z,7.37
2017-07-21T02:07:50.205Z,5.47
2017-07-21T02:10:18.375Z,5.53
2017-07-21T02:12:46.548Z,6.22
2017-07-21T02:15:14.678Z,6.60
2017-07-21T02:17:42.812Z,6.05
2017-07-21T02:20:11.061Z,6.65
2017-07-21T02:22:39.201Z,7.78
2017-07-21T02:25:07.350Z,6.57
2017-07-21T02:27:35.482Z,12.82
2017-07-21T02:30:03.621Z,7.10
2017-07-21T02:32:31.802Z,6.03
2017-07-21T02:34:59.965Z,6.55
2017-07-21T02:37:28.133Z,6.72
2017-07-21T02:39:56.377Z,9.70
2017-07-21T02:42:24.521Z,8.50
2017-07-21T02:44:52.686Z,6.47
2017-07-21T02:47:20.923Z,6.53
2017-07-21T02:49:49.097Z,6.40
2017-07-21T02:52:17.239Z,6.62
2017-07-21T02:54:45.361Z,7.90
2017-07-21T02:57:14.737Z,6.85
2017-07-21T02:59:42.879Z,7.93
2017-07-21T03:02:11.065Z,8.75
2017-07-21T03:04:39.185Z,6.37
2017-07-21T03:07:07.302Z,7.53
2017-07-21T03:09:36.373Z,13.07
2017-07-21T03:12:04.540Z,7.72
2017-07-21T03:14:32.688Z,7.72
2017-07-21T03:17:00.860Z,8.02
2017-07-21T03:19:29.038Z,7.15
2017-07-21T03:21:57.197Z,7.85
2017-07-21T03:24:25.458Z,9.00
2017-07-21T03:26:53.618Z,9.07
2017-07-21T03:29:21.741Z,9.38
2017-07-21T03:31:49.933Z,9.00
2017-07-21T03:34:18.099Z,8.77
2017-07-21T03:36:46.260Z,8.20
2017-07-21T03:39:14.395Z,9.80
2017-07-21T03:41:42.554Z,7.87
2017-07-21T03:44:10.808Z,7.97
2017-07-21T03:46:38.942Z,7.68
2017-07-21T03:49:07.886Z,7.37
2017-07-21T03:51:36.020Z,8.18
2017-07-21T03:54:04.142Z,7.90
2017-07-21T03:56:32.257Z,7.80
2017-07-21T03:59:00.383Z,7.82
2017-07-21T04:01:28.479Z,9.80
2017-07-21T04:03:57.936Z,8.50
2017-07-21T04:06:26.049Z,7.15
2017-07-21T04:08:54.185Z,10.73
2017-07-21T04:11:22.289Z,8.98
2017-07-21T04:13:50.392Z,10.15
2017-07-21T04:16:18.541Z,8.95
2017-07-21T04:18:46.781Z,7.97
2017-07-21T04:21:14.914Z,7.80
2017-07-21T04:23:43.032Z,8.05
2017-07-21T04:26:11.142Z,8.68
2017-07-21T04:28:39.278Z,7.47
2017-07-21T04:31:07.453Z,7.72
2017-07-21T04:33:35.561Z,7.68
2017-07-21T04:36:03.838Z,8.48
2017-07-21T04:38:31.930Z,8.55
2017-07-21T04:41:00.566Z,8.02
2017-07-21T04:43:31.626Z,7.57
2017-07-21T05:06:43.225Z,7.25
2017-07-21T05:09:11.602Z,8.18
2017-07-21T05:11:39.824Z,8.13
2017-07-21T05:14:08.205Z,8.57
2017-07-21T05:16:36.552Z,12.48
2017-07-21T05:19:04.731Z,15.02
2017-07-21T05:21:32.888Z,9.15
2017-07-21T05:24:00.990Z,9.52
2017-07-21T05:26:30.000Z,7.45
2017-07-21T05:28:58.117Z,7.80
2017-07-21T05:31:26.205Z,9.88
2017-07-21T05:33:54.442Z,8.98
2017-07-21T05:36:22.548Z,8.85
2017-07-21T05:38:50.641Z,8.15
2017-07-21T05:41:18.772Z,12.43
2017-07-21T05:43:46.866Z,8.75
2017-07-21T05:46:14.984Z,8.48
2017-07-21T05:48:43.109Z,8.77
2017-07-21T05:51:11.220Z,10.75
2017-07-21T05:53:39.311Z,8.02
2017-07-21T05:56:07.554Z,7.70
2017-07-21T05:58:35.686Z,8.85
2017-07-21T06:01:03.927Z,6.68
2017-07-21T06:03:32.044Z,9.32
2017-07-21T06:06:00.145Z,14.23
2017-07-21T06:08:28.296Z,8.00
2017-07-21T06:10:56.392Z,12.63
2017-07-21T06:13:24.505Z,10.15
2017-07-21T06:15:52.633Z,6.90
2017-07-21T06:18:20.726Z,9.13
2017-07-21T06:20:48.891Z,8.25
2017-07-21T06:23:16.977Z,7.65
2017-07-21T06:25:45.092Z,7.43
2017-07-21T06:28:13.184Z,7.15
2017-07-21T06:30:41.288Z,12.30
2017-07-21T06:33:09.399Z,5.65
2017-07-21T06:35:37.501Z,6.28
2017-07-21T06:38:05.736Z,7.55
2017-07-21T06:40:33.835Z,5.93
2017-07-21T06:43:01.948Z,6.93
2017-07-21T06:45:30.052Z,5.75
2017-07-21T06:47:58.181Z,7.20
2017-07-21T06:50:26.277Z,5.00
2017-07-21T06:52:55.342Z,5.80
2017-07-21T06:55:23.501Z,5.50
2017-07-21T06:57:51.612Z,6.12
2017-07-21T07:00:19.709Z,6.85
2017-07-21T07:02:47.844Z,7.12
2017-07-21T07:05:15.953Z,15.63
2017-07-21T07:07:44.060Z,6.28
2017-07-21T07:10:12.197Z,5.62
2017-07-21T07:12:40.291Z,5.87
2017-07-21T07:15:08.389Z,6.47
2017-07-21T07:17:36.637Z,5.35
2017-07-21T07:20:04.724Z,8.32
2017-07-21T07:22:32.877Z,5.32
2017-07-21T07:25:00.986Z,5.07
2017-07-21T07:27:29.088Z,3.60
2017-07-21T07:29:57.341Z,9.47
2017-07-21T07:32:25.439Z,4.15
2017-07-21T07:34:53.539Z,3.87
2017-07-21T07:37:21.671Z,5.90
2017-07-21T07:39:49.772Z,8.03
2017-07-21T07:42:17.876Z,4.87
2017-07-21T07:44:46.013Z,4.07
2017-07-21T07:47:14.104Z,6.30
2017-07-21T07:49:42.353Z,3.77
2017-07-21T07:52:10.442Z,4.33
2017-07-21T07:54:38.538Z,4.93
2017-07-21T07:57:06.669Z,4.40
2017-07-21T07:59:34.758Z,4.30
2017-07-21T08:02:02.871Z,3.40
2017-07-21T08:04:31.004Z,9.10
2017-07-21T08:06:59.233Z,4.60
2017-07-21T08:09:27.329Z,6.57
2017-07-21T08:11:55.434Z,4.77
2017-07-21T08:14:23.564Z,4.93
2017-07-21T08:16:51.652Z,8.80
2017-07-21T08:19:19.776Z,7.07
2017-07-21T08:21:47.901Z,6.97
2017-07-21T08:24:15.986Z,4.13
2017-07-21T08:26:44.081Z,3.37
2017-07-21T08:29:12.317Z,5.07
2017-07-21T08:31:40.413Z,3.83
2017-07-21T08:34:08.521Z,4.83
2017-07-21T08:36:36.619Z,5.20
2017-07-21T08:39:04.734Z,5.60
2017-07-21T08:41:32.852Z,15.00
2017-07-21T08:44:01.097Z,4.83
2017-07-21T08:46:29.329Z,3.13
2017-07-21T08:48:57.427Z,3.40
2017-07-21T08:51:25.549Z,3.77
2017-07-21T08:53:53.650Z,3.53
2017-07-21T08:56:21.744Z,3.90
2017-07-21T08:58:49.845Z,4.03
2017-07-21T09:01:18.088Z,3.40
2017-07-21T09:03:46.240Z,3.90
2017-07-21T09:06:14.383Z,3.27
2017-07-21T09:08:42.473Z,4.40
2017-07-21T09:11:10.593Z,3.10
2017-07-21T09:13:38.679Z,3.60
2017-07-21T09:16:06.804Z,2.80
2017-07-21T09:18:34.876Z,3.03
2017-07-21T09:21:03.044Z,4.27
2017-07-21T09:23:31.150Z,5.27
2017-07-21T09:25:59.252Z,3.80
2017-07-21T09:28:27.373Z,5.97
2017-07-21T09:30:55.460Z,7.47
2017-07-21T09:33:23.557Z,3.20
2017-07-21T09:35:51.673Z,5.60
2017-07-21T09:38:19.760Z,3.53
2017-07-21T09:40:47.924Z,4.13
2017-07-21T09:43:16.021Z,4.33
2017-07-21T09:45:44.136Z,5.20
2017-07-21T09:48:12.258Z,3.70
2017-07-21T09:50:40.336Z,3.37
2017-07-21T09:53:08.487Z,4.53
2017-07-21T09:55:36.671Z,5.67
2017-07-21T09:58:04.901Z,5.97
2017-07-21T10:00:33.077Z,5.63
2017-07-21T10:03:01.224Z,3.30
2017-07-21T10:05:29.413Z,7.90
2017-07-21T10:07:57.590Z,4.47
2017-07-21T10:10:26.652Z,4.27
2017-07-21T10:12:54.841Z,5.63
2017-07-21T10:15:23.010Z,3.90
2017-07-21T10:17:51.204Z,4.47
2017-07-21T10:20:19.425Z,3.80
2017-07-21T10:22:47.625Z,4.30
2017-07-21T11:14:00.312Z,3.60
2017-07-21T11:16:28.452Z,3.43
2017-07-21T11:18:56.547Z,5.37
2017-07-21T11:21:26.573Z,3.03
2017-07-21T11:23:54.714Z,3.40
2017-07-21T11:26:22.826Z,3.90
2017-07-21T11:28:51.934Z,2.90
2017-07-21T11:31:20.213Z,2.90
2017-07-21T11:33:48.314Z,3.77
2017-07-21T11:36:16.417Z,4.13
2017-07-21T11:38:44.950Z,4.20
2017-07-21T11:41:13.055Z,3.57
2017-07-21T11:43:42.086Z,3.37
2017-07-21T11:46:11.359Z,3.30
2017-07-21T11:48:39.498Z,3.40
2017-07-21T11:51:07.764Z,3.63
2017-07-21T11:53:35.873Z,4.43
2017-07-21T11:56:04.014Z,3.37
2017-07-21T11:58:33.042Z,3.27
2017-07-21T12:01:01.168Z,3.43
2017-07-21T12:03:29.305Z,3.37
2017-07-21T12:05:58.858Z,3.60
2017-07-21T12:08:27.123Z,3.27
2017-07-21T12:10:55.231Z,3.53
2017-07-21T12:13:23.337Z,3.97
2017-07-21T12:15:51.479Z,3.97
2017-07-21T12:18:21.607Z,3.43
2017-07-21T12:20:49.785Z,3.77
2017-07-21T12:23:18.688Z,3.60
2017-07-21T12:25:46.793Z,3.53
2017-07-21T12:28:15.383Z,3.83
2017-07-21T12:43:52.461Z,3.80
2017-07-21T12:46:27.364Z,3.77
2017-07-21T12:49:05.261Z,4.27
2017-07-21T13:05:24.261Z,3.63
2017-07-21T13:08:03.103Z,3.53
2017-07-21T13:10:40.686Z,4.00
2017-07-21T13:13:23.844Z,3.80
2017-07-21T13:16:02.238Z,4.07
2017-07-21T13:21:22.676Z,3.57
2017-07-21T13:34:19.670Z,4.33
2017-07-21T13:36:58.159Z,4.00
2017-07-21T13:39:40.254Z,4.33
2017-07-21T13:42:19.114Z,4.23
2017-07-21T13:44:57.486Z,3.70
2017-07-21T13:47:37.750Z,4.03
2017-07-21T13:50:17.810Z,3.67
2017-07-21T13:52:56.349Z,6.87
2017-07-21T13:55:36.336Z,3.93
2017-07-21T13:58:18.596Z,3.77
2017-07-21T14:00:58.764Z,5.87
2017-07-21T14:03:39.744Z,3.80
2017-07-21T14:06:23.877Z,3.73
2017-07-21T14:09:06.101Z,3.93
2017-07-21T14:29:29.455Z,3.93
2017-07-21T14:35:12.657Z,3.97
2017-07-21T14:43:42.483Z,5.03
2017-07-21T14:49:51.449Z,3.60
2017-07-21T15:01:59.082Z,3.83
2017-07-21T15:07:18.973Z,4.00
2017-07-21T15:09:55.526Z,4.10
2017-07-21T15:12:31.925Z,4.30
2017-07-21T15:17:59.359Z,4.40
2017-07-21T15:20:32.161Z,4.37
2017-07-21T15:23:12.547Z,4.67
2017-07-21T15:28:25.566Z,3.87
2017-07-21T15:33:41.277Z,4.00
2017-07-21T15:36:16.667Z,4.23
2017-07-21T15:38:56.718Z,3.93
2017-07-21T15:44:16.011Z,5.07
2017-07-21T15:49:51.830Z,4.03
2017-07-21T15:52:34.200Z,3.77
2017-07-21T15:55:13.401Z,3.47
2017-07-21T15:57:55.532Z,3.40
2017-07-21T16:00:38.225Z,5.50
2017-07-21T16:03:22.094Z,4.30
2017-07-21T16:05:59.399Z,3.80
2017-07-21T16:16:49.617Z,3.87
2017-07-21T16:19:28.550Z,5.90
2017-07-21T16:22:09.327Z,9.60
2017-07-21T16:24:50.203Z,4.17
2017-07-21T16:27:29.768Z,4.17
2017-07-21T16:30:14.499Z,4.10
2017-07-21T16:32:59.106Z,4.60
2017-07-21T16:38:35.401Z,4.80
2017-07-21T16:41:16.087Z,5.00
2017-07-21T16:44:10.091Z,4.77
2017-07-21T16:53:55.579Z,4.50
2017-07-21T16:56:23.950Z,5.27
2017-07-21T16:58:52.192Z,9.90
2017-07-21T17:04:03.117Z,4.37
2017-07-21T17:47:29.710Z,4.53
2017-07-21T18:46:13.990Z,4.87
2017-07-21T19:15:09.857Z,5.67
2017-07-21T19:22:46.381Z,4.57
2017-07-21T19:25:19.363Z,4.50
2017-07-21T19:27:51.918Z,2.60
2017-07-21T19:30:22.514Z,2.05
2017-07-21T19:32:54.563Z,2.70
2017-07-21T19:38:08.617Z,2.97
2017-07-21T19:40:52.740Z,2.60
2017-07-21T19:43:22.831Z,3.20
2017-07-21T19:45:52.776Z,4.37
2017-07-21T19:48:22.907Z,4.03
2017-07-21T19:50:54.518Z,4.15
2017-07-21T19:53:25.805Z,3.85
2017-07-21T19:55:56.909Z,4.00
2017-07-21T19:58:30.292Z,4.65
2017-07-21T20:18:07.463Z,4.28
2017-07-21T20:21:09.512Z,4.03
2017-07-21T21:19:05.901Z,4.15
2017-07-21T21:21:37.755Z,3.30
2017-07-21T21:24:06.998Z,3.47
2017-07-21T21:26:35.754Z,4.10
2017-07-21T21:29:08.147Z,5.32
2017-07-21T21:31:39.389Z,7.65
2017-07-21T21:36:45.960Z,3.75
2017-07-21T21:39:19.911Z,3.22
2017-07-21T21:41:52.649Z,2.95
2017-07-21T21:44:23.436Z,3.20
2017-07-21T21:46:53.791Z,3.70
2017-07-21T21:49:25.643Z,3.55
2017-07-21T21:51:57.833Z,4.37
2017-07-21T21:54:29.586Z,4.07
2017-07-21T21:57:00.151Z,2.70
2017-07-21T21:59:31.378Z,3.55
2017-07-21T22:02:01.284Z,3.00
2017-07-21T22:04:31.036Z,4.10
2017-07-21T22:06:59.252Z,2.45
2017-07-21T22:09:30.232Z,3.92
2017-07-21T22:11:58.817Z,4.28
2017-07-21T22:14:28.210Z,3.08
2017-07-21T22:16:57.154Z,3.53
2017-07-21T22:19:25.261Z,2.55
2017-07-21T22:21:53.374Z,2.97
2017-07-21T22:24:21.507Z,2.40
2017-07-21T22:26:49.629Z,3.65
2017-07-21T22:29:17.867Z,3.40
2017-07-21T22:31:45.961Z,3.08
2017-07-21T22:34:14.096Z,2.80
2017-07-21T22:36:42.246Z,3.40
2017-07-21T22:39:11.113Z,5.25
2017-07-21T22:41:39.223Z,7.93
2017-07-21T22:44:08.129Z,3.50
2017-07-21T22:46:36.247Z,5.32
2017-07-21T22:49:04.341Z,4.37
2017-07-21T22:51:33.349Z,3.90
2017-07-21T22:54:01.453Z,3.92
2017-07-21T22:56:29.552Z,6.25
2017-07-21T22:58:57.747Z,7.80
2017-07-21T23:01:26.625Z,4.20
2017-07-21T23:03:54.723Z,5.68
2017-07-21T23:06:23.635Z,3.87
2017-07-21T23:08:51.742Z,4.28
2017-07-21T23:11:19.891Z,4.70
2017-07-21T23:13:47.985Z,6.55
2017-07-21T23:16:16.088Z,4.50
2017-07-21T23:18:44.310Z,3.78
2017-07-21T23:21:12.424Z,3.83
2017-07-21T23:23:42.197Z,4.53
2017-07-21T23:26:10.341Z,5.45
2017-07-21T23:28:38.448Z,5.10
2017-07-21T23:31:06.573Z,5.90
2017-07-21T23:33:35.576Z,4.93
2017-07-21T23:36:04.478Z,7.00
2017-07-21T23:38:32.654Z,4.20
2017-07-21T23:41:00.754Z,5.35
2017-07-21T23:43:28.880Z,5.65
2017-07-21T23:45:58.116Z,4.80
2017-07-21T23:48:26.244Z,5.22
2017-07-21T23:50:55.128Z,4.82
2017-07-21T23:53:23.379Z,5.65
2017-07-21T23:55:51.488Z,5.90
2017-07-21T23:58:20.644Z,7.30
